Mangilao, Guam
Current Conditions -  °F | °C
As of 12:09 PM on Thursday 23 Oct 2014 (Local Time) from PGUM Reporting Station
Overcast Overcast  
Wind Chill: 86°   Ceiling: 2500
Heat Index: 95°   Visibility: 10mi
Dew Point: 75°   Wind: 12mph
Humidity: 70%   Direction: 40°NE
Pressure: 29.81"   Gusts: NA
Location:  13.44°N, 144.8°E
Report Text: PGUM 230209Z 04010KT 10SM BKN025 OVC055 30/24 A2981 RMK AO2
Loading
Personal Weather Stations






























Interactive Weather Map
Tropical Storm Tracking
New forecast layout! Learn more

10-Day Weather Forecast

Advertisements
Track Severe Weather on mobile